sensor_id;sensor_type;location;lat;lon;timestamp;temperature;humidity
42199;DHT22;27868;45.184;5.786;2023-04-28T00:02:20;17.70;68.40
42199;DHT22;27868;45.184;5.786;2023-04-28T00:05:04;17.70;68.40
42199;DHT22;27868;45.184;5.786;2023-04-28T00:07:49;17.70;68.60
42199;DHT22;27868;45.184;5.786;2023-04-28T00:10:34;17.70;68.60
42199;DHT22;27868;45.184;5.786;2023-04-28T00:13:18;17.60;68.70
42199;DHT22;27868;45.184;5.786;2023-04-28T00:16:03;17.70;69.00
42199;DHT22;27868;45.184;5.786;2023-04-28T00:18:48;17.60;69.10
42199;DHT22;27868;45.184;5.786;2023-04-28T00:21:32;17.60;69.40
42199;DHT22;27868;45.184;5.786;2023-04-28T00:24:17;17.60;69.40
42199;DHT22;27868;45.184;5.786;2023-04-28T00:32:19;17.50;69.60
42199;DHT22;27868;45.184;5.786;2023-04-28T00:35:04;17.50;69.60
42199;DHT22;27868;45.184;5.786;2023-04-28T00:37:49;17.50;69.60
42199;DHT22;27868;45.184;5.786;2023-04-28T00:40:33;17.50;69.60
42199;DHT22;27868;45.184;5.786;2023-04-28T00:43:18;17.50;69.70
42199;DHT22;27868;45.184;5.786;2023-04-28T00:46:03;17.40;69.70
42199;DHT22;27868;45.184;5.786;2023-04-28T00:48:47;17.40;69.60
42199;DHT22;27868;45.184;5.786;2023-04-28T00:51:32;17.40;69.70
42199;DHT22;27868;45.184;5.786;2023-04-28T00:54:17;17.50;69.90
42199;DHT22;27868;45.184;5.786;2023-04-28T00:57:02;17.40;70.50
42199;DHT22;27868;45.184;5.786;2023-04-28T00:59:46;17.40;70.30
42199;DHT22;27868;45.184;5.786;2023-04-28T01:02:31;17.40;70.50
42199;DHT22;27868;45.184;5.786;2023-04-28T01:05:15;17.40;70.70
42199;DHT22;27868;45.184;5.786;2023-04-28T01:08:00;17.30;70.70
42199;DHT22;27868;45.184;5.786;2023-04-28T01:10:44;17.30;70.90
42199;DHT22;27868;45.184;5.786;2023-04-28T01:13:29;17.30;71.00
42199;DHT22;27868;45.184;5.786;2023-04-28T01:16:13;17.30;71.20
42199;DHT22;27868;45.184;5.786;2023-04-28T01:18:58;17.30;71.10
42199;DHT22;27868;45.184;5.786;2023-04-28T01:21:43;17.30;71.10
42199;DHT22;27868;45.184;5.786;2023-04-28T01:24:27;17.20;71.20
42199;DHT22;27868;45.184;5.786;2023-04-28T01:27:12;17.20;71.30
42199;DHT22;27868;45.184;5.786;2023-04-28T01:29:57;17.20;71.20
42199;DHT22;27868;45.184;5.786;2023-04-28T01:32:41;17.10;71.20
42199;DHT22;27868;45.184;5.786;2023-04-28T01:35:26;17.10;71.30
42199;DHT22;27868;45.184;5.786;2023-04-28T01:38:10;17.10;71.20
42199;DHT22;27868;45.184;5.786;2023-04-28T01:40:55;17.10;71.30
42199;DHT22;27868;45.184;5.786;2023-04-28T01:43:39;17.00;71.40
42199;DHT22;27868;45.184;5.786;2023-04-28T01:46:24;17.00;71.50
42199;DHT22;27868;45.184;5.786;2023-04-28T01:49:08;17.00;71.50
42199;DHT22;27868;45.184;5.786;2023-04-28T01:51:53;16.90;71.60
42199;DHT22;27868;45.184;5.786;2023-04-28T01:54:37;16.90;71.70
42199;DHT22;27868;45.184;5.786;2023-04-28T01:57:22;16.80;71.90
42199;DHT22;27868;45.184;5.786;2023-04-28T02:00:07;16.80;72.00
42199;DHT22;27868;45.184;5.786;2023-04-28T02:02:51;16.80;72.10
42199;DHT22;27868;45.184;5.786;2023-04-28T02:05:36;16.70;72.20
42199;DHT22;27868;45.184;5.786;2023-04-28T02:08:20;16.70;72.40
42199;DHT22;27868;45.184;5.786;2023-04-28T02:11:05;16.70;72.50
42199;DHT22;27868;45.184;5.786;2023-04-28T02:13:49;16.60;72.40
42199;DHT22;27868;45.184;5.786;2023-04-28T02:16:34;16.60;72.60
42199;DHT22;27868;45.184;5.786;2023-04-28T02:19:19;16.50;72.90
42199;DHT22;27868;45.184;5.786;2023-04-28T02:22:03;16.50;73.00
42199;DHT22;27868;45.184;5.786;2023-04-28T02:24:48;16.40;73.60
42199;DHT22;27868;45.184;5.786;2023-04-28T02:27:35;16.40;73.10
42199;DHT22;27868;45.184;5.786;2023-04-28T02:30:20;16.40;73.00
42199;DHT22;27868;45.184;5.786;2023-04-28T02:33:05;16.40;73.00
42199;DHT22;27868;45.184;5.786;2023-04-28T02:35:57;16.40;73.30
42199;DHT22;27868;45.184;5.786;2023-04-28T02:38:41;16.40;73.60
42199;DHT22;27868;45.184;5.786;2023-04-28T02:41:26;16.30;74.20
42199;DHT22;27868;45.184;5.786;2023-04-28T02:44:10;16.30;73.60
42199;DHT22;27868;45.184;5.786;2023-04-28T02:46:54;16.30;73.60
42199;DHT22;27868;45.184;5.786;2023-04-28T02:49:39;16.30;73.70
42199;DHT22;27868;45.184;5.786;2023-04-28T02:52:24;16.30;73.70
42199;DHT22;27868;45.184;5.786;2023-04-28T02:55:08;16.30;74.10
42199;DHT22;27868;45.184;5.786;2023-04-28T02:57:53;16.30;74.20
42199;DHT22;27868;45.184;5.786;2023-04-28T03:00:38;16.20;74.20
42199;DHT22;27868;45.184;5.786;2023-04-28T03:03:22;16.20;74.20
42199;DHT22;27868;45.184;5.786;2023-04-28T03:06:07;16.20;74.30
42199;DHT22;27868;45.184;5.786;2023-04-28T03:08:51;16.20;74.50
42199;DHT22;27868;45.184;5.786;2023-04-28T03:11:36;16.10;74.40
42199;DHT22;27868;45.184;5.786;2023-04-28T03:14:20;16.10;74.20
42199;DHT22;27868;45.184;5.786;2023-04-28T03:17:05;16.00;74.30
42199;DHT22;27868;45.184;5.786;2023-04-28T03:19:49;16.00;74.10
42199;DHT22;27868;45.184;5.786;2023-04-28T03:22:34;16.00;74.10
42199;DHT22;27868;45.184;5.786;2023-04-28T03:25:18;15.90;74.20
42199;DHT22;27868;45.184;5.786;2023-04-28T03:28:03;15.90;74.40
42199;DHT22;27868;45.184;5.786;2023-04-28T03:30:48;15.90;74.40
42199;DHT22;27868;45.184;5.786;2023-04-28T03:33:33;15.90;74.50
42199;DHT22;27868;45.184;5.786;2023-04-28T03:36:17;15.90;74.60
42199;DHT22;27868;45.184;5.786;2023-04-28T03:39:02;15.80;74.40
42199;DHT22;27868;45.184;5.786;2023-04-28T03:41:46;15.90;74.50
42199;DHT22;27868;45.184;5.786;2023-04-28T03:44:31;15.80;74.60
42199;DHT22;27868;45.184;5.786;2023-04-28T03:47:15;15.80;74.70
42199;DHT22;27868;45.184;5.786;2023-04-28T03:50:00;15.80;74.80
42199;DHT22;27868;45.184;5.786;2023-04-28T03:52:44;15.80;74.80
42199;DHT22;27868;45.184;5.786;2023-04-28T03:55:29;15.80;74.90
42199;DHT22;27868;45.184;5.786;2023-04-28T03:58:14;15.70;74.90
42199;DHT22;27868;45.184;5.786;2023-04-28T04:00:59;15.70;75.00
42199;DHT22;27868;45.184;5.786;2023-04-28T04:03:44;15.70;75.20
42199;DHT22;27868;45.184;5.786;2023-04-28T04:06:28;15.70;75.30
42199;DHT22;27868;45.184;5.786;2023-04-28T04:09:14;15.70;75.50
42199;DHT22;27868;45.184;5.786;2023-04-28T04:11:58;15.70;75.60
42199;DHT22;27868;45.184;5.786;2023-04-28T04:14:44;15.70;75.90
42199;DHT22;27868;45.184;5.786;2023-04-28T04:17:29;15.60;75.70
42199;DHT22;27868;45.184;5.786;2023-04-28T04:20:13;15.60;75.60
42199;DHT22;27868;45.184;5.786;2023-04-28T04:22:58;15.70;75.60
42199;DHT22;27868;45.184;5.786;2023-04-28T04:25:42;15.70;75.60
42199;DHT22;27868;45.184;5.786;2023-04-28T04:28:27;15.70;75.60
42199;DHT22;27868;45.184;5.786;2023-04-28T04:31:11;15.70;75.60
42199;DHT22;27868;45.184;5.786;2023-04-28T04:33:56;15.70;75.70
42199;DHT22;27868;45.184;5.786;2023-04-28T04:36:41;15.60;75.60
42199;DHT22;27868;45.184;5.786;2023-04-28T04:39:26;15.70;75.90
42199;DHT22;27868;45.184;5.786;2023-04-28T04:42:11;15.70;76.00
42199;DHT22;27868;45.184;5.786;2023-04-28T04:44:55;15.70;76.10
42199;DHT22;27868;45.184;5.786;2023-04-28T04:47:40;15.70;75.90
42199;DHT22;27868;45.184;5.786;2023-04-28T04:50:24;15.70;75.90
42199;DHT22;27868;45.184;5.786;2023-04-28T04:53:09;15.70;76.00
42199;DHT22;27868;45.184;5.786;2023-04-28T04:55:53;15.70;75.90
42199;DHT22;27868;45.184;5.786;2023-04-28T04:58:38;15.60;75.90
42199;DHT22;27868;45.184;5.786;2023-04-28T05:01:22;15.60;76.00
42199;DHT22;27868;45.184;5.786;2023-04-28T05:04:07;15.60;76.20
42199;DHT22;27868;45.184;5.786;2023-04-28T05:06:52;15.60;76.50
42199;DHT22;27868;45.184;5.786;2023-04-28T05:09:37;15.60;76.60
42199;DHT22;27868;45.184;5.786;2023-04-28T05:12:21;15.60;76.80
42199;DHT22;27868;45.184;5.786;2023-04-28T05:15:06;15.60;77.10
42199;DHT22;27868;45.184;5.786;2023-04-28T05:17:51;15.60;77.10
42199;DHT22;27868;45.184;5.786;2023-04-28T05:20:36;15.60;77.20
42199;DHT22;27868;45.184;5.786;2023-04-28T05:23:20;15.60;77.20
42199;DHT22;27868;45.184;5.786;2023-04-28T05:26:05;15.60;77.20
42199;DHT22;27868;45.184;5.786;2023-04-28T05:28:50;15.60;77.40
42199;DHT22;27868;45.184;5.786;2023-04-28T05:31:35;15.70;77.60
42199;DHT22;27868;45.184;5.786;2023-04-28T05:34:19;15.70;77.70
42199;DHT22;27868;45.184;5.786;2023-04-28T05:37:04;15.70;77.70
42199;DHT22;27868;45.184;5.786;2023-04-28T05:39:48;15.70;77.70
42199;DHT22;27868;45.184;5.786;2023-04-28T05:42:33;15.70;77.60
42199;DHT22;27868;45.184;5.786;2023-04-28T05:45:17;15.80;77.80
42199;DHT22;27868;45.184;5.786;2023-04-28T05:48:02;15.80;78.20
42199;DHT22;27868;45.184;5.786;2023-04-28T05:50:48;15.80;78.10
42199;DHT22;27868;45.184;5.786;2023-04-28T05:53:32;15.90;78.00
42199;DHT22;27868;45.184;5.786;2023-04-28T05:56:17;16.00;78.20
42199;DHT22;27868;45.184;5.786;2023-04-28T05:59:02;15.90;79.20
42199;DHT22;27868;45.184;5.786;2023-04-28T06:01:47;16.00;78.60
42199;DHT22;27868;45.184;5.786;2023-04-28T06:04:34;16.00;78.60
42199;DHT22;27868;45.184;5.786;2023-04-28T06:07:18;16.00;78.50
42199;DHT22;27868;45.184;5.786;2023-04-28T06:10:03;16.10;78.50
42199;DHT22;27868;45.184;5.786;2023-04-28T06:12:49;16.10;78.60
42199;DHT22;27868;45.184;5.786;2023-04-28T06:15:33;16.10;78.60
42199;DHT22;27868;45.184;5.786;2023-04-28T06:18:18;16.20;78.60
42199;DHT22;27868;45.184;5.786;2023-04-28T06:21:02;16.20;78.60
42199;DHT22;27868;45.184;5.786;2023-04-28T06:23:47;16.20;78.50
42199;DHT22;27868;45.184;5.786;2023-04-28T06:26:31;16.30;78.80
42199;DHT22;27868;45.184;5.786;2023-04-28T06:29:16;16.30;79.00
42199;DHT22;27868;45.184;5.786;2023-04-28T06:32:00;16.40;78.80
42199;DHT22;27868;45.184;5.786;2023-04-28T06:34:45;16.40;81.50
42199;DHT22;27868;45.184;5.786;2023-04-28T06:37:30;16.50;79.40
42199;DHT22;27868;45.184;5.786;2023-04-28T06:40:14;16.60;79.30
42199;DHT22;27868;45.184;5.786;2023-04-28T06:42:59;16.70;79.60
42199;DHT22;27868;45.184;5.786;2023-04-28T06:45:43;16.70;80.20
42199;DHT22;27868;45.184;5.786;2023-04-28T06:48:28;16.80;79.10
42199;DHT22;27868;45.184;5.786;2023-04-28T06:51:13;16.90;79.00
42199;DHT22;27868;45.184;5.786;2023-04-28T06:53:57;17.00;78.70
42199;DHT22;27868;45.184;5.786;2023-04-28T06:56:42;17.10;78.40
42199;DHT22;27868;45.184;5.786;2023-04-28T06:59:27;17.20;78.40
42199;DHT22;27868;45.184;5.786;2023-04-28T07:02:11;17.20;78.00
42199;DHT22;27868;45.184;5.786;2023-04-28T07:04:56;17.30;77.80
42199;DHT22;27868;45.184;5.786;2023-04-28T07:07:42;17.40;77.90
42199;DHT22;27868;45.184;5.786;2023-04-28T07:10:27;17.50;77.40
42199;DHT22;27868;45.184;5.786;2023-04-28T07:13:11;17.60;77.20
42199;DHT22;27868;45.184;5.786;2023-04-28T07:15:56;17.70;76.90
42199;DHT22;27868;45.184;5.786;2023-04-28T07:18:40;17.70;76.80
42199;DHT22;27868;45.184;5.786;2023-04-28T07:21:25;17.70;76.40
42199;DHT22;27868;45.184;5.786;2023-04-28T07:24:09;17.70;76.60
42199;DHT22;27868;45.184;5.786;2023-04-28T07:26:54;17.80;76.70
42199;DHT22;27868;45.184;5.786;2023-04-28T07:29:38;17.90;76.40
42199;DHT22;27868;45.184;5.786;2023-04-28T07:32:23;18.00;76.30
42199;DHT22;27868;45.184;5.786;2023-04-28T07:35:08;18.20;75.70
42199;DHT22;27868;45.184;5.786;2023-04-28T07:37:53;18.20;75.60
42199;DHT22;27868;45.184;5.786;2023-04-28T07:40:37;18.20;75.60
42199;DHT22;27868;45.184;5.786;2023-04-28T07:43:22;18.30;75.40
42199;DHT22;27868;45.184;5.786;2023-04-28T07:46:07;18.30;75.10
42199;DHT22;27868;45.184;5.786;2023-04-28T07:48:52;18.40;74.40
42199;DHT22;27868;45.184;5.786;2023-04-28T07:51:37;18.40;74.70
42199;DHT22;27868;45.184;5.786;2023-04-28T07:54:22;18.50;74.40
42199;DHT22;27868;45.184;5.786;2023-04-28T07:57:07;18.60;73.90
42199;DHT22;27868;45.184;5.786;2023-04-28T07:59:51;18.60;73.70
42199;DHT22;27868;45.184;5.786;2023-04-28T08:02:36;18.60;74.00
42199;DHT22;27868;45.184;5.786;2023-04-28T08:05:20;18.70;73.80
42199;DHT22;27868;45.184;5.786;2023-04-28T08:08:05;18.60;73.10
42199;DHT22;27868;45.184;5.786;2023-04-28T08:10:49;18.70;73.60
42199;DHT22;27868;45.184;5.786;2023-04-28T08:13:34;18.70;73.40
42199;DHT22;27868;45.184;5.786;2023-04-28T08:16:18;18.80;73.40
42199;DHT22;27868;45.184;5.786;2023-04-28T08:19:03;18.80;73.00
42199;DHT22;27868;45.184;5.786;2023-04-28T08:21:47;18.90;72.70
42199;DHT22;27868;45.184;5.786;2023-04-28T08:24:32;18.90;72.30
42199;DHT22;27868;45.184;5.786;2023-04-28T08:27:19;19.00;72.40
42199;DHT22;27868;45.184;5.786;2023-04-28T08:30:07;19.10;71.80
42199;DHT22;27868;45.184;5.786;2023-04-28T08:32:52;19.10;71.30
42199;DHT22;27868;45.184;5.786;2023-04-28T08:35:37;19.10;71.80
42199;DHT22;27868;45.184;5.786;2023-04-28T08:38:21;19.20;71.30
42199;DHT22;27868;45.184;5.786;2023-04-28T08:41:08;19.10;71.80
42199;DHT22;27868;45.184;5.786;2023-04-28T08:43:53;19.20;71.80
42199;DHT22;27868;45.184;5.786;2023-04-28T08:46:41;19.30;71.50
42199;DHT22;27868;45.184;5.786;2023-04-28T08:49:28;19.40;71.40
42199;DHT22;27868;45.184;5.786;2023-04-28T08:52:15;19.40;71.20
42199;DHT22;27868;45.184;5.786;2023-04-28T08:55:01;19.40;71.00
42199;DHT22;27868;45.184;5.786;2023-04-28T08:57:48;19.40;70.30
42199;DHT22;27868;45.184;5.786;2023-04-28T09:00:35;19.50;71.00
42199;DHT22;27868;45.184;5.786;2023-04-28T09:03:20;19.60;70.80
42199;DHT22;27868;45.184;5.786;2023-04-28T09:06:05;19.60;70.50
42199;DHT22;27868;45.184;5.786;2023-04-28T09:08:49;19.70;70.30
42199;DHT22;27868;45.184;5.786;2023-04-28T09:11:34;19.80;69.80
42199;DHT22;27868;45.184;5.786;2023-04-28T09:14:20;19.90;69.70
42199;DHT22;27868;45.184;5.786;2023-04-28T09:17:09;20.00;69.80
42199;DHT22;27868;45.184;5.786;2023-04-28T09:19:55;20.20;69.70
42199;DHT22;27868;45.184;5.786;2023-04-28T09:22:40;20.20;69.50
42199;DHT22;27868;45.184;5.786;2023-04-28T09:25:25;20.30;69.60
42199;DHT22;27868;45.184;5.786;2023-04-28T09:28:20;20.40;69.50
42199;DHT22;27868;45.184;5.786;2023-04-28T09:31:05;20.50;69.10
42199;DHT22;27868;45.184;5.786;2023-04-28T09:33:56;20.60;69.10
42199;DHT22;27868;45.184;5.786;2023-04-28T09:36:40;20.70;69.20
42199;DHT22;27868;45.184;5.786;2023-04-28T09:39:31;20.70;69.10
42199;DHT22;27868;45.184;5.786;2023-04-28T09:42:35;20.80;68.70
42199;DHT22;27868;45.184;5.786;2023-04-28T09:45:20;20.90;68.20
42199;DHT22;27868;45.184;5.786;2023-04-28T09:48:08;21.00;68.20
42199;DHT22;27868;45.184;5.786;2023-04-28T09:50:53;21.10;67.50
42199;DHT22;27868;45.184;5.786;2023-04-28T09:53:38;21.10;67.60
42199;DHT22;27868;45.184;5.786;2023-04-28T09:56:22;21.20;67.20
42199;DHT22;27868;45.184;5.786;2023-04-28T09:59:08;21.20;67.30
42199;DHT22;27868;45.184;5.786;2023-04-28T10:01:53;21.30;67.20
42199;DHT22;27868;45.184;5.786;2023-04-28T10:04:38;21.30;67.60
42199;DHT22;27868;45.184;5.786;2023-04-28T10:07:23;21.40;67.70
42199;DHT22;27868;45.184;5.786;2023-04-28T10:10:08;21.50;67.20
42199;DHT22;27868;45.184;5.786;2023-04-28T10:12:53;21.60;66.90
42199;DHT22;27868;45.184;5.786;2023-04-28T10:15:38;21.70;67.00
42199;DHT22;27868;45.184;5.786;2023-04-28T10:18:24;21.70;67.10
42199;DHT22;27868;45.184;5.786;2023-04-28T10:21:09;21.90;66.50
42199;DHT22;27868;45.184;5.786;2023-04-28T10:23:59;21.90;66.00
42199;DHT22;27868;45.184;5.786;2023-04-28T10:29:37;22.10;66.20
42199;DHT22;27868;45.184;5.786;2023-04-28T10:32:22;22.10;65.40
42199;DHT22;27868;45.184;5.786;2023-04-28T10:40:59;22.60;65.00
42199;DHT22;27868;45.184;5.786;2023-04-28T10:43:46;22.60;64.50
42199;DHT22;27868;45.184;5.786;2023-04-28T10:46:46;22.80;64.50
42199;DHT22;27868;45.184;5.786;2023-04-28T10:52:46;23.20;63.30
42199;DHT22;27868;45.184;5.786;2023-04-28T10:55:34;23.30;63.50
42199;DHT22;27868;45.184;5.786;2023-04-28T11:04:05;23.50;62.40
42199;DHT22;27868;45.184;5.786;2023-04-28T11:07:08;23.60;62.50
42199;DHT22;27868;45.184;5.786;2023-04-28T11:09:53;23.80;62.50
42199;DHT22;27868;45.184;5.786;2023-04-28T11:13:03;24.00;61.20
42199;DHT22;27868;45.184;5.786;2023-04-28T11:15:48;24.20;60.60
42199;DHT22;27868;45.184;5.786;2023-04-28T11:21:34;24.50;61.30
42199;DHT22;27868;45.184;5.786;2023-04-28T11:24:19;24.70;60.90
42199;DHT22;27868;45.184;5.786;2023-04-28T11:27:06;24.80;59.90
42199;DHT22;27868;45.184;5.786;2023-04-28T11:29:52;25.00;59.40
42199;DHT22;27868;45.184;5.786;2023-04-28T11:32:36;25.10;59.40
42199;DHT22;27868;45.184;5.786;2023-04-28T11:35:23;25.20;59.50
42199;DHT22;27868;45.184;5.786;2023-04-28T11:38:08;25.30;59.60
42199;DHT22;27868;45.184;5.786;2023-04-28T11:40:58;25.40;59.10
42199;DHT22;27868;45.184;5.786;2023-04-28T11:43:43;25.30;58.30
42199;DHT22;27868;45.184;5.786;2023-04-28T11:46:28;25.40;59.00
42199;DHT22;27868;45.184;5.786;2023-04-28T11:49:12;25.40;59.00
42199;DHT22;27868;45.184;5.786;2023-04-28T11:52:05;25.60;58.40
42199;DHT22;27868;45.184;5.786;2023-04-28T11:54:53;25.70;58.50
42199;DHT22;27868;45.184;5.786;2023-04-28T11:57:39;25.80;58.00
42199;DHT22;27868;45.184;5.786;2023-04-28T12:00:26;26.00;57.90
42199;DHT22;27868;45.184;5.786;2023-04-28T12:03:12;26.10;57.90
42199;DHT22;27868;45.184;5.786;2023-04-28T12:05:57;26.20;57.10
42199;DHT22;27868;45.184;5.786;2023-04-28T12:08:42;26.20;57.20
42199;DHT22;27868;45.184;5.786;2023-04-28T12:11:26;26.20;57.70
42199;DHT22;27868;45.184;5.786;2023-04-28T12:14:14;26.20;57.80
42199;DHT22;27868;45.184;5.786;2023-04-28T12:17:29;26.30;57.30
42199;DHT22;27868;45.184;5.786;2023-04-28T12:20:32;26.40;56.90
42199;DHT22;27868;45.184;5.786;2023-04-28T12:26:33;26.30;55.90
42199;DHT22;27868;45.184;5.786;2023-04-28T12:29:35;26.50;56.80
42199;DHT22;27868;45.184;5.786;2023-04-28T12:32:41;26.70;56.80
42199;DHT22;27868;45.184;5.786;2023-04-28T12:35:29;26.70;56.40
42199;DHT22;27868;45.184;5.786;2023-04-28T12:38:14;26.70;56.60
42199;DHT22;27868;45.184;5.786;2023-04-28T12:41:00;26.80;57.30
42199;DHT22;27868;45.184;5.786;2023-04-28T12:43:44;27.00;57.20
42199;DHT22;27868;45.184;5.786;2023-04-28T12:46:29;27.00;57.20
42199;DHT22;27868;45.184;5.786;2023-04-28T12:49:15;27.10;56.70
42199;DHT22;27868;45.184;5.786;2023-04-28T12:51:59;27.10;56.50
42199;DHT22;27868;45.184;5.786;2023-04-28T12:54:44;27.00;56.50
42199;DHT22;27868;45.184;5.786;2023-04-28T12:57:31;27.20;56.30
42199;DHT22;27868;45.184;5.786;2023-04-28T13:00:16;27.30;55.80
42199;DHT22;27868;45.184;5.786;2023-04-28T13:03:04;27.40;55.00
42199;DHT22;27868;45.184;5.786;2023-04-28T13:05:49;27.50;55.80
42199;DHT22;27868;45.184;5.786;2023-04-28T13:08:35;27.60;56.00
42199;DHT22;27868;45.184;5.786;2023-04-28T13:11:20;27.70;55.30
42199;DHT22;27868;45.184;5.786;2023-04-28T13:14:06;27.80;55.80
42199;DHT22;27868;45.184;5.786;2023-04-28T13:16:51;27.90;55.30
42199;DHT22;27868;45.184;5.786;2023-04-28T13:19:35;28.00;55.60
42199;DHT22;27868;45.184;5.786;2023-04-28T13:22:20;28.10;55.50
42199;DHT22;27868;45.184;5.786;2023-04-28T13:25:05;28.20;54.80
42199;DHT22;27868;45.184;5.786;2023-04-28T13:27:50;28.30;54.60
42199;DHT22;27868;45.184;5.786;2023-04-28T13:30:35;28.40;54.60
42199;DHT22;27868;45.184;5.786;2023-04-28T13:33:19;28.40;55.00
42199;DHT22;27868;45.184;5.786;2023-04-28T13:36:04;28.60;54.00
42199;DHT22;27868;45.184;5.786;2023-04-28T13:38:51;28.60;53.60
42199;DHT22;27868;45.184;5.786;2023-04-28T13:41:38;28.60;52.90
42199;DHT22;27868;45.184;5.786;2023-04-28T13:44:23;28.50;55.10
42199;DHT22;27868;45.184;5.786;2023-04-28T13:47:07;28.40;55.50
42199;DHT22;27868;45.184;5.786;2023-04-28T13:49:53;28.60;54.70
42199;DHT22;27868;45.184;5.786;2023-04-28T13:52:37;28.60;54.20
42199;DHT22;27868;45.184;5.786;2023-04-28T13:55:22;28.80;53.30
42199;DHT22;27868;45.184;5.786;2023-04-28T13:58:11;28.80;53.10
42199;DHT22;27868;45.184;5.786;2023-04-28T14:00:55;28.80;53.20
42199;DHT22;27868;45.184;5.786;2023-04-28T14:03:40;28.80;52.70
42199;DHT22;27868;45.184;5.786;2023-04-28T14:06:25;28.70;52.40
42199;DHT22;27868;45.184;5.786;2023-04-28T14:09:10;28.80;52.20
42199;DHT22;27868;45.184;5.786;2023-04-28T14:11:55;28.90;52.00
42199;DHT22;27868;45.184;5.786;2023-04-28T14:14:41;28.90;52.30
42199;DHT22;27868;45.184;5.786;2023-04-28T14:17:26;28.90;51.20
42199;DHT22;27868;45.184;5.786;2023-04-28T14:20:11;28.80;52.20
42199;DHT22;27868;45.184;5.786;2023-04-28T14:22:57;28.90;52.40
42199;DHT22;27868;45.184;5.786;2023-04-28T14:25:41;28.90;52.30
42199;DHT22;27868;45.184;5.786;2023-04-28T14:28:26;28.80;52.50
42199;DHT22;27868;45.184;5.786;2023-04-28T14:31:11;28.60;53.00
42199;DHT22;27868;45.184;5.786;2023-04-28T14:33:55;28.70;53.10
42199;DHT22;27868;45.184;5.786;2023-04-28T14:36:40;28.80;51.00
42199;DHT22;27868;45.184;5.786;2023-04-28T14:39:25;28.70;52.40
42199;DHT22;27868;45.184;5.786;2023-04-28T14:42:09;28.80;52.20
42199;DHT22;27868;45.184;5.786;2023-04-28T14:44:55;28.70;51.60
42199;DHT22;27868;45.184;5.786;2023-04-28T14:47:39;28.70;52.50
42199;DHT22;27868;45.184;5.786;2023-04-28T14:50:24;28.70;52.50
42199;DHT22;27868;45.184;5.786;2023-04-28T14:53:09;28.60;52.20
42199;DHT22;27868;45.184;5.786;2023-04-28T14:55:53;28.50;52.30
42199;DHT22;27868;45.184;5.786;2023-04-28T14:58:38;28.40;52.50
42199;DHT22;27868;45.184;5.786;2023-04-28T15:01:22;28.30;52.70
42199;DHT22;27868;45.184;5.786;2023-04-28T15:04:07;28.30;52.90
42199;DHT22;27868;45.184;5.786;2023-04-28T15:06:53;28.20;52.70
42199;DHT22;27868;45.184;5.786;2023-04-28T15:09:37;28.20;52.90
42199;DHT22;27868;45.184;5.786;2023-04-28T15:12:21;28.10;53.20
42199;DHT22;27868;45.184;5.786;2023-04-28T15:15:06;27.70;53.40
42199;DHT22;27868;45.184;5.786;2023-04-28T15:17:50;27.70;53.70
42199;DHT22;27868;45.184;5.786;2023-04-28T15:20:36;27.70;53.50
42199;DHT22;27868;45.184;5.786;2023-04-28T15:23:21;27.60;54.10
42199;DHT22;27868;45.184;5.786;2023-04-28T15:26:06;27.60;54.10
42199;DHT22;27868;45.184;5.786;2023-04-28T15:28:51;27.60;53.70
42199;DHT22;27868;45.184;5.786;2023-04-28T15:31:36;27.60;53.90
42199;DHT22;27868;45.184;5.786;2023-04-28T15:34:23;27.50;53.90
42199;DHT22;27868;45.184;5.786;2023-04-28T15:37:34;27.50;54.30
42199;DHT22;27868;45.184;5.786;2023-04-28T15:40:13;27.40;54.50
42199;DHT22;27868;45.184;5.786;2023-04-28T15:42:58;27.30;55.00
42199;DHT22;27868;45.184;5.786;2023-04-28T15:45:42;27.20;54.90
42199;DHT22;27868;45.184;5.786;2023-04-28T15:48:30;27.20;54.70
42199;DHT22;27868;45.184;5.786;2023-04-28T15:51:14;27.20;54.60
42199;DHT22;27868;45.184;5.786;2023-04-28T15:53:59;27.20;54.90
42199;DHT22;27868;45.184;5.786;2023-04-28T15:56:43;27.10;54.90
42199;DHT22;27868;45.184;5.786;2023-04-28T15:59:28;27.10;55.10
42199;DHT22;27868;45.184;5.786;2023-04-28T16:02:14;27.00;55.30
42199;DHT22;27868;45.184;5.786;2023-04-28T16:04:59;26.70;55.50
42199;DHT22;27868;45.184;5.786;2023-04-28T16:07:45;26.60;56.00
42199;DHT22;27868;45.184;5.786;2023-04-28T16:10:30;26.50;56.10
42199;DHT22;27868;45.184;5.786;2023-04-28T16:13:15;26.50;55.90
42199;DHT22;27868;45.184;5.786;2023-04-28T16:15:59;26.20;56.50
42199;DHT22;27868;45.184;5.786;2023-04-28T16:18:44;26.30;56.40
42199;DHT22;27868;45.184;5.786;2023-04-28T16:21:29;26.30;56.40
42199;DHT22;27868;45.184;5.786;2023-04-28T16:24:14;26.30;56.50
42199;DHT22;27868;45.184;5.786;2023-04-28T16:26:59;26.30;56.10
42199;DHT22;27868;45.184;5.786;2023-04-28T16:29:44;26.30;56.10
42199;DHT22;27868;45.184;5.786;2023-04-28T16:32:29;26.20;56.40
42199;DHT22;27868;45.184;5.786;2023-04-28T16:35:13;26.20;56.60
42199;DHT22;27868;45.184;5.786;2023-04-28T16:37:58;26.20;56.70
42199;DHT22;27868;45.184;5.786;2023-04-28T16:40:42;26.10;56.80
42199;DHT22;27868;45.184;5.786;2023-04-28T16:43:27;26.00;56.70
42199;DHT22;27868;45.184;5.786;2023-04-28T16:46:11;26.00;57.00
42199;DHT22;27868;45.184;5.786;2023-04-28T16:48:56;25.80;57.00
42199;DHT22;27868;45.184;5.786;2023-04-28T16:51:43;25.80;57.10
42199;DHT22;27868;45.184;5.786;2023-04-28T16:54:37;25.80;57.20
42199;DHT22;27868;45.184;5.786;2023-04-28T16:57:22;25.80;57.00
42199;DHT22;27868;45.184;5.786;2023-04-28T17:00:07;25.80;56.90
42199;DHT22;27868;45.184;5.786;2023-04-28T17:02:52;25.70;57.00
42199;DHT22;27868;45.184;5.786;2023-04-28T17:05:37;25.60;57.30
42199;DHT22;27868;45.184;5.786;2023-04-28T17:08:21;25.50;57.30
42199;DHT22;27868;45.184;5.786;2023-04-28T17:11:06;25.40;57.20
42199;DHT22;27868;45.184;5.786;2023-04-28T17:13:50;25.40;57.50
42199;DHT22;27868;45.184;5.786;2023-04-28T17:16:35;25.30;57.50
42199;DHT22;27868;45.184;5.786;2023-04-28T17:19:20;25.30;57.50
42199;DHT22;27868;45.184;5.786;2023-04-28T17:22:04;25.30;57.60
42199;DHT22;27868;45.184;5.786;2023-04-28T17:24:49;25.30;57.70
42199;DHT22;27868;45.184;5.786;2023-04-28T17:27:33;25.30;57.70
42199;DHT22;27868;45.184;5.786;2023-04-28T17:30:18;25.20;57.90
42199;DHT22;27868;45.184;5.786;2023-04-28T17:33:02;25.10;58.00
42199;DHT22;27868;45.184;5.786;2023-04-28T17:35:47;25.00;58.20
42199;DHT22;27868;45.184;5.786;2023-04-28T17:38:31;25.00;58.50
42199;DHT22;27868;45.184;5.786;2023-04-28T17:41:16;24.90;58.70
42199;DHT22;27868;45.184;5.786;2023-04-28T17:44:00;24.80;58.60
42199;DHT22;27868;45.184;5.786;2023-04-28T17:46:45;24.80;58.60
42199;DHT22;27868;45.184;5.786;2023-04-28T17:49:29;24.80;58.70
42199;DHT22;27868;45.184;5.786;2023-04-28T17:52:14;24.70;58.70
42199;DHT22;27868;45.184;5.786;2023-04-28T17:54:58;24.70;58.80